Time;durP1;ratioP1;P1;durP2;ratioP2;P2;SDS_P1;SDS_P2;PMS_P1;PMS_P2;Temp;Humidity;BMP_temperature;BMP_pressure;BME280_temperature;BME280_humidity;BME280_pressure;Samples;Min_cycle;Max_cycle;Signal;HPM_P1;HPM_P2
2024/01/19 00:01:32;;;;;;;48.85;17.67;;;;;;;-2.69;100.00;97015.63;5097971;28;20106;-55
2024/01/19 00:03:59;;;;;;;41.40;14.35;;;;;;;-2.63;100.00;97033.88;5097474;28;20090;-52
2024/01/19 00:06:26;;;;;;;36.72;16.05;;;;;;;-2.66;100.00;97025.69;5097866;28;20048;-50
2024/01/19 00:08:52;;;;;;;43.42;16.63;;;;;;;-2.55;100.00;97024.16;5097640;28;20382;-51
2024/01/19 00:11:18;;;;;;;42.40;17.45;;;;;;;-2.50;100.00;97018.59;5097229;28;20155;-54
2024/01/19 00:13:44;;;;;;;38.97;16.65;;;;;;;-2.40;100.00;96999.38;5097340;28;20070;-51
2024/01/19 00:16:10;;;;;;;37.45;14.55;;;;;;;-2.47;100.00;96984.94;5097490;28;20086;-55
2024/01/19 00:18:36;;;;;;;41.38;16.35;;;;;;;-2.47;100.00;96972.28;5097574;28;20067;-53
2024/01/19 00:21:03;;;;;;;36.45;14.00;;;;;;;-2.67;100.00;96995.38;5097069;28;20150;-51
2024/01/19 00:23:29;;;;;;;39.65;14.43;;;;;;;-2.47;100.00;97039.38;5097418;28;20443;-55
2024/01/19 00:25:55;;;;;;;43.08;16.45;;;;;;;-2.46;100.00;97051.69;5097088;28;20138;-54
2024/01/19 00:28:21;;;;;;;40.28;15.68;;;;;;;-2.48;100.00;97083.41;5097400;28;20090;-52
2024/01/19 00:30:47;;;;;;;47.00;17.45;;;;;;;-2.76;100.00;97077.84;5096969;28;20190;-51
2024/01/19 00:33:13;;;;;;;40.30;14.70;;;;;;;-2.47;100.00;97135.97;5097446;28;20381;-54
2024/01/19 00:35:39;;;;;;;43.88;16.35;;;;;;;-2.52;100.00;97148.81;5096984;28;20147;-52
2024/01/19 00:38:06;;;;;;;36.13;15.05;;;;;;;-2.41;100.00;97149.97;5097376;28;20055;-54
2024/01/19 00:40:32;;;;;;;37.15;14.93;;;;;;;-2.52;100.00;97136.19;5096934;28;20158;-54
2024/01/19 00:42:58;;;;;;;43.85;14.95;;;;;;;-2.56;100.00;97139.84;5097134;28;20083;-54
2024/01/19 00:45:24;;;;;;;49.17;16.02;;;;;;;-2.51;100.00;97145.78;5096932;28;20138;-53
2024/01/19 00:47:51;;;;;;;45.38;16.90;;;;;;;-2.61;100.00;97135.47;5096781;28;20143;-55
2024/01/19 00:50:17;;;;;;;48.25;17.25;;;;;;;-2.47;100.00;97156.63;5096708;28;20542;-56
2024/01/19 00:52:43;;;;;;;43.10;16.52;;;;;;;-2.43;100.00;97147.63;5096745;28;20078;-54
2024/01/19 00:55:10;;;;;;;40.65;15.50;;;;;;;-2.31;100.00;97157.63;5096980;28;20091;-55
2024/01/19 00:57:37;;;;;;;42.55;16.20;;;;;;;-2.44;100.00;97138.00;5096644;28;20490;-54
2024/01/19 01:00:04;;;;;;;39.38;15.30;;;;;;;-2.48;100.00;97142.44;5097079;28;20143;-55
2024/01/19 01:02:30;;;;;;;41.17;16.58;;;;;;;-2.40;100.00;97140.78;5096662;28;20150;-58
2024/01/19 01:04:56;;;;;;;38.00;15.45;;;;;;;-2.34;100.00;97155.59;5097056;28;20131;-53
2024/01/19 01:07:22;;;;;;;43.10;15.82;;;;;;;-2.31;100.00;97135.34;5096471;28;20048;-54
2024/01/19 01:09:48;;;;;;;58.40;16.05;;;;;;;-2.40;100.00;97100.53;5096464;28;20095;-55
2024/01/19 01:12:15;;;;;;;43.75;14.57;;;;;;;-2.37;100.00;97099.88;5096681;28;20106;-53
2024/01/19 01:14:42;;;;;;;39.47;14.15;;;;;;;-2.40;100.00;97090.63;5096656;28;20396;-54
2024/01/19 01:17:08;;;;;;;41.35;15.02;;;;;;;-2.43;100.00;97091.28;5096771;28;20325;-52
2024/01/19 01:19:34;;;;;;;37.20;15.95;;;;;;;-2.44;100.00;97110.38;5096321;28;20087;-55
2024/01/19 01:22:00;;;;;;;50.28;17.80;;;;;;;-2.46;100.00;97096.53;5096598;28;20139;-57
2024/01/19 01:24:26;;;;;;;38.95;15.15;;;;;;;-2.52;100.00;97100.53;5096458;28;20075;-53
2024/01/19 01:26:52;;;;;;;44.80;16.65;;;;;;;-2.50;100.00;97141.19;5096598;28;20139;-53
2024/01/19 01:29:18;;;;;;;43.00;17.73;;;;;;;-2.63;100.00;97159.94;5096320;28;20321;-56
2024/01/19 01:31:45;;;;;;;42.42;16.75;;;;;;;-2.55;100.00;97168.25;5096625;28;20139;-54
2024/01/19 01:34:11;;;;;;;45.13;16.38;;;;;;;-2.61;100.00;97176.47;5096194;28;20168;-52
2024/01/19 01:36:37;;;;;;;47.05;18.88;;;;;;;-2.54;100.00;97191.25;5096630;28;20165;-53
2024/01/19 01:39:03;;;;;;;49.20;16.77;;;;;;;-2.55;100.00;97192.38;5096099;28;20138;-56
2024/01/19 01:41:29;;;;;;;37.78;15.20;;;;;;;-2.56;100.00;97196.97;5096342;28;20052;-54
2024/01/19 01:43:55;;;;;;;41.85;15.52;;;;;;;-2.49;100.00;97205.28;5096380;28;20332;-52
2024/01/19 01:46:21;;;;;;;45.85;16.33;;;;;;;-2.51;100.00;97196.75;5096229;28;20056;-55
2024/01/19 01:48:48;;;;;;;42.70;16.30;;;;;;;-2.46;100.00;97193.13;5096231;28;20094;-56
2024/01/19 01:51:14;;;;;;;42.25;16.80;;;;;;;-2.54;100.00;97186.69;5099034;28;20381;-57
2024/01/19 01:53:40;;;;;;;37.60;16.35;;;;;;;-2.56;100.00;97194.28;5099825;28;20431;-55
2024/01/19 01:56:06;;;;;;;47.15;16.42;;;;;;;-2.57;100.00;97187.34;5099508;28;20083;-56
2024/01/19 01:58:33;;;;;;;41.92;16.38;;;;;;;-2.61;100.00;97200.63;5099886;28;20472;-52
2024/01/19 02:00:59;;;;;;;44.78;16.70;;;;;;;-2.68;100.00;97196.88;5099515;28;20075;-54
2024/01/19 02:03:26;;;;;;;43.90;16.42;;;;;;;-2.78;100.00;97253.59;5099875;28;20134;-57
2024/01/19 02:05:52;;;;;;;65.05;21.15;;;;;;;-2.74;100.00;97262.56;5099330;28;20064;-55
2024/01/19 02:08:18;;;;;;;40.17;17.20;;;;;;;-2.76;100.00;97299.66;5099211;28;20134;-56
2024/01/19 02:10:45;;;;;;;41.58;16.02;;;;;;;-2.70;100.00;97311.75;5099527;28;20384;-54
2024/01/19 02:13:11;;;;;;;44.60;15.32;;;;;;;-2.68;100.00;97296.13;5099237;28;20090;-55
2024/01/19 02:15:37;;;;;;;44.03;16.77;;;;;;;-2.58;100.00;97311.06;5099214;28;20083;-51
2024/01/19 02:18:04;;;;;;;42.53;17.40;;;;;;;-2.52;100.00;97304.41;5099228;28;20056;-54
2024/01/19 02:20:30;;;;;;;36.17;15.50;;;;;;;-2.55;100.00;97286.28;5099526;28;20075;-52
2024/01/19 02:22:58;;;;;;;44.55;15.70;;;;;;;-2.56;100.00;97287.41;5099042;28;20428;-54
2024/01/19 02:25:25;;;;;;;47.00;15.20;;;;;;;-2.50;100.00;97291.44;5099459;28;20173;-52
2024/01/19 02:27:51;;;;;;;51.88;17.90;;;;;;;-2.48;100.00;97273.13;5099029;28;20455;-52
2024/01/19 02:30:17;;;;;;;35.92;15.48;;;;;;;-2.66;100.00;97259.06;5099433;28;20048;-56
2024/01/19 02:32:43;;;;;;;39.05;14.82;;;;;;;-2.62;100.00;97268.81;5098960;28;20143;-54
2024/01/19 02:35:10;;;;;;;35.90;14.38;;;;;;;-2.53;100.00;97276.81;5099102;28;20048;-55
2024/01/19 02:37:36;;;;;;;35.53;15.10;;;;;;;-2.49;100.00;97275.03;5098867;28;20059;-56
2024/01/19 02:40:04;;;;;;;38.53;15.40;;;;;;;-2.61;100.00;97266.91;5099098;28;20450;-53
2024/01/19 02:42:31;;;;;;;51.35;15.00;;;;;;;-2.52;100.00;97310.56;5098890;28;20067;-56
2024/01/19 02:44:59;;;;;;;55.75;16.40;;;;;;;-2.50;100.00;97299.50;5098725;28;20138;-52
2024/01/19 02:47:26;;;;;;;47.05;16.73;;;;;;;-2.49;100.00;97295.72;5098624;28;20431;-55
2024/01/19 02:49:53;;;;;;;36.88;15.82;;;;;;;-2.84;100.00;97290.53;5098588;28;20056;-52
2024/01/19 02:52:19;;;;;;;34.47;15.32;;;;;;;-2.60;100.00;97351.63;5098962;28;20321;-54
2024/01/19 02:54:45;;;;;;;37.30;15.90;;;;;;;-2.53;100.00;97378.75;5098548;28;20048;-54
2024/01/19 02:57:11;;;;;;;39.97;14.65;;;;;;;-2.49;100.00;97377.00;5098990;28;20098;-57
2024/01/19 02:59:38;;;;;;;41.75;15.75;;;;;;;-2.42;100.00;97360.41;5098500;28;20079;-53
2024/01/19 03:02:04;;;;;;;45.50;15.00;;;;;;;-2.71;100.00;97355.78;5097713;28;20063;-52
2024/01/19 03:04:30;;;;;;;37.00;15.52;;;;;;;-2.88;100.00;97375.41;5098793;28;20079;-55
2024/01/19 03:06:57;;;;;;;36.05;15.45;;;;;;;-2.66;100.00;97428.06;5098362;28;20052;-54
2024/01/19 03:09:23;;;;;;;33.20;13.32;;;;;;;-2.41;100.00;97443.25;5098440;28;20088;-56
2024/01/19 03:11:49;;;;;;;38.90;14.02;;;;;;;-2.64;100.00;97444.59;5098456;28;20336;-54
2024/01/19 03:14:15;;;;;;;40.45;13.80;;;;;;;-2.51;100.00;97473.13;5098493;28;20086;-54
2024/01/19 03:16:42;;;;;;;40.75;13.73;;;;;;;-2.62;100.00;97439.72;5098350;28;20047;-56
2024/01/19 03:19:08;;;;;;;41.53;14.65;;;;;;;-2.51;100.00;97437.47;5098482;28;20458;-55
2024/01/19 03:21:34;;;;;;;36.08;14.82;;;;;;;-2.83;100.00;97439.63;5098183;28;20083;-55
2024/01/19 03:24:00;;;;;;;31.50;13.73;;;;;;;-2.64;100.00;97440.00;5098497;28;20055;-53
2024/01/19 03:26:26;;;;;;;33.92;14.07;;;;;;;-2.61;100.00;97417.91;5098168;28;20152;-54
2024/01/19 03:28:52;;;;;;;54.28;20.48;;;;;;;-2.67;100.00;97424.56;5098600;28;20087;-56
2024/01/19 03:31:19;;;;;;;52.10;19.90;;;;;;;-2.67;100.00;97423.78;5097849;28;20138;-53
2024/01/19 03:33:45;;;;;;;47.95;17.40;;;;;;;-2.64;100.00;97447.28;5097917;28;20148;-54
2024/01/19 03:36:11;;;;;;;38.40;16.05;;;;;;;-3.01;100.00;97476.38;5098215;28;20090;-52
2024/01/19 03:38:37;;;;;;;41.92;15.88;;;;;;;-2.87;100.00;97537.88;5097878;28;20134;-56
2024/01/19 03:41:04;;;;;;;33.15;14.80;;;;;;;-2.62;100.00;97555.06;5098015;28;20407;-54
2024/01/19 03:43:30;;;;;;;37.95;14.50;;;;;;;-2.86;100.00;97550.19;5097996;28;20322;-56
2024/01/19 03:45:56;;;;;;;40.85;15.77;;;;;;;-3.14;100.00;97557.75;5097851;28;20371;-52
2024/01/19 03:48:22;;;;;;;34.85;15.15;;;;;;;-3.24;100.00;97574.13;5097889;28;20133;-55
2024/01/19 03:50:49;;;;;;;44.45;16.38;;;;;;;-2.92;100.00;97654.13;5097931;28;20139;-56
2024/01/19 03:53:15;;;;;;;43.85;16.00;;;;;;;-2.91;100.00;97641.53;5097736;28;20079;-53
2024/01/19 03:55:41;;;;;;;39.08;17.85;;;;;;;-2.93;100.00;97604.31;5098030;28;20055;-52
2024/01/19 03:58:07;;;;;;;43.38;16.90;;;;;;;-2.97;100.00;97581.09;5097634;28;20048;-55
2024/01/19 04:00:33;;;;;;;37.88;14.95;;;;;;;-3.35;100.00;97595.88;5097995;28;20084;-56
2024/01/19 04:02:59;;;;;;;36.47;15.93;;;;;;;-3.28;100.00;97629.47;5097762;28;20332;-55
2024/01/19 04:05:25;;;;;;;41.85;16.60;;;;;;;-3.25;100.00;97626.16;5097665;28;20298;-56
2024/01/19 04:07:52;;;;;;;47.13;16.70;;;;;;;-3.36;100.00;97615.75;5097419;28;20083;-55
2024/01/19 04:10:18;;;;;;;38.22;15.88;;;;;;;-3.32;100.00;97631.97;5097605;28;20044;-53
2024/01/19 04:12:44;;;;;;;41.28;15.27;;;;;;;-3.41;100.00;97628.47;5097127;28;20142;-55
2024/01/19 04:15:10;;;;;;;41.70;16.05;;;;;;;-3.48;100.00;97636.19;5097296;28;20080;-56
2024/01/19 04:17:36;;;;;;;38.15;15.35;;;;;;;-3.69;100.00;97627.94;5097435;28;20066;-53
2024/01/19 04:20:04;;;;;;;37.47;14.93;;;;;;;-3.86;100.00;97653.53;5097157;28;20079;-52
2024/01/19 04:22:30;;;;;;;39.97;14.73;;;;;;;-3.86;100.00;97696.34;5097545;28;20059;-56
2024/01/19 04:24:57;;;;;;;39.10;14.65;;;;;;;-3.92;100.00;97735.06;5097197;28;20052;-56
2024/01/19 04:27:23;;;;;;;47.80;15.68;;;;;;;-3.84;100.00;97773.69;5097399;28;20094;-53
2024/01/19 04:29:49;;;;;;;40.53;16.40;;;;;;;-3.97;100.00;97790.59;5096953;28;20079;-54
2024/01/19 04:32:15;;;;;;;44.85;14.73;;;;;;;-4.15;100.00;97843.19;5097221;28;20094;-56
2024/01/19 04:34:41;;;;;;;42.13;15.10;;;;;;;-4.11;100.00;97866.38;5097184;28;20098;-54
2024/01/19 04:37:08;;;;;;;37.63;15.73;;;;;;;-4.16;100.00;97895.94;5097030;28;20127;-55
2024/01/19 04:39:34;;;;;;;41.17;15.13;;;;;;;-4.24;100.00;97903.88;5097139;28;20428;-55
2024/01/19 04:42:01;;;;;;;37.17;14.50;;;;;;;-4.09;100.00;97941.03;5096752;28;20051;-57
2024/01/19 04:44:27;;;;;;;43.70;13.93;;;;;;;-4.66;100.00;97941.31;5096779;28;20052;-57
2024/01/19 04:46:53;;;;;;;39.88;15.50;;;;;;;-4.11;100.00;98031.53;5096722;28;20087;-55
2024/01/19 04:49:19;;;;;;;44.08;16.33;;;;;;;-4.01;100.00;98047.41;5096937;28;20055;-56
2024/01/19 04:51:45;;;;;;;48.08;16.63;;;;;;;-4.22;100.00;98041.66;5096826;28;20450;-57
2024/01/19 04:54:11;;;;;;;57.47;19.20;;;;;;;-3.79;100.00;98078.88;5096977;28;20044;-53
2024/01/19 04:56:37;;;;;;;37.63;15.77;;;;;;;-3.72;100.00;98067.75;5096563;28;20063;-57
2024/01/19 04:59:05;;;;;;;37.20;14.88;;;;;;;-3.71;100.00;98067.44;5096788;28;20138;-55
2024/01/19 05:01:31;;;;;;;47.17;19.45;;;;;;;-3.48;100.00;98068.34;5096877;28;20419;-55
2024/01/19 05:03:57;;;;;;;39.50;16.42;;;;;;;-3.60;100.00;98062.69;5096435;28;20148;-57
2024/01/19 05:06:23;;;;;;;32.92;14.25;;;;;;;-3.36;100.00;98068.63;5096542;28;20434;-55
2024/01/19 05:08:49;;;;;;;41.33;12.98;;;;;;;-3.15;100.00;98068.97;5096264;28;20087;-55
2024/01/19 05:11:15;;;;;;;35.33;13.93;;;;;;;-3.24;100.00;98037.81;5096579;28;20110;-52
2024/01/19 05:13:41;;;;;;;27.20;11.52;;;;;;;-3.20;100.00;98022.72;5096190;28;20090;-55
2024/01/19 05:16:09;;;;;;;43.67;12.93;;;;;;;-3.06;100.00;98015.44;5096504;28;20099;-58
2024/01/19 05:18:35;;;;;;;28.67;12.80;;;;;;;-3.03;100.00;97988.03;5096154;28;20134;-55
2024/01/19 05:21:01;;;;;;;30.80;12.27;;;;;;;-2.94;100.00;97983.50;5096667;28;20047;-53
2024/01/19 05:23:27;;;;;;;34.22;12.82;;;;;;;-2.89;100.00;97961.94;5096190;28;20386;-56
2024/01/19 05:25:53;;;;;;;26.15;10.93;;;;;;;-2.78;100.00;97945.56;5095719;28;20055;-54
2024/01/19 05:28:19;;;;;;;31.65;11.95;;;;;;;-2.65;100.00;97931.28;5096000;28;20059;-55
2024/01/19 05:30:46;;;;;;;30.75;11.43;;;;;;;-2.85;100.00;97862.88;5095921;28;20448;-57
2024/01/19 05:33:12;;;;;;;30.42;10.50;;;;;;;-2.92;100.00;97833.03;5096225;28;20370;-52
2024/01/19 05:35:38;;;;;;;28.45;12.98;;;;;;;-2.94;100.00;97814.53;5096198;28;20332;-57
2024/01/19 05:38:04;;;;;;;25.73;10.40;;;;;;;-2.78;100.00;97803.41;5096261;28;20183;-56
2024/01/19 05:40:31;;;;;;;26.45;9.15;;;;;;;-2.84;100.00;97803.53;5095957;28;20084;-57
2024/01/19 05:42:57;;;;;;;22.65;8.85;;;;;;;-2.65;100.00;97778.38;5095764;28;20416;-52
2024/01/19 05:45:23;;;;;;;25.35;9.93;;;;;;;-2.82;100.00;97724.69;5095658;28;20059;-53
2024/01/19 05:47:49;;;;;;;24.98;10.98;;;;;;;-2.91;100.00;97719.28;5096119;28;20051;-57
2024/01/19 05:50:16;;;;;;;27.30;10.18;;;;;;;-2.84;100.00;97717.72;5095864;28;20048;-58
2024/01/19 05:52:44;;;;;;;21.92;9.57;;;;;;;-2.78;100.00;97715.69;5096140;28;20454;-53
2024/01/19 05:55:10;;;;;;;24.15;9.55;;;;;;;-2.77;100.00;97713.78;5095661;28;20424;-57
2024/01/19 05:57:36;;;;;;;26.40;10.23;;;;;;;-2.72;100.00;97705.59;5095977;28;20052;-56
2024/01/19 06:00:03;;;;;;;37.40;14.32;;;;;;;-2.75;100.00;97682.88;5095936;28;20056;-57
2024/01/19 06:02:29;;;;;;;30.92;12.13;;;;;;;-2.70;100.00;97682.75;5095695;28;20048;-54
2024/01/19 06:04:55;;;;;;;28.88;11.20;;;;;;;-2.60;100.00;97689.66;5095475;28;20052;-56
2024/01/19 06:07:23;;;;;;;25.00;10.88;;;;;;;-2.71;100.00;97662.38;5095447;28;20049;-53
2024/01/19 06:09:50;;;;;;;34.75;11.52;;;;;;;-2.77;100.00;97655.56;5095635;28;20141;-56
2024/01/19 06:12:16;;;;;;;32.55;12.77;;;;;;;-2.69;100.00;97646.75;5095172;28;20147;-51
2024/01/19 06:14:42;;;;;;;25.95;10.73;;;;;;;-2.61;100.00;97647.84;5095788;28;20044;-56
2024/01/19 06:17:11;;;;;;;29.10;11.68;;;;;;;-2.58;100.00;97616.94;5095328;28;20105;-54
2024/01/19 06:19:37;;;;;;;36.38;12.07;;;;;;;-2.56;100.00;97602.09;5095837;28;20135;-53
2024/01/19 06:22:03;;;;;;;25.67;9.27;;;;;;;-2.50;100.00;97600.84;5095266;28;20056;-52
2024/01/19 06:24:34;;;;;;;27.73;10.40;;;;;;;-2.60;100.00;97585.03;5095574;28;20059;-57
2024/01/19 06:27:01;;;;;;;31.35;13.27;;;;;;;-2.42;100.00;97581.25;5095386;28;20127;-58
2024/01/19 06:29:27;;;;;;;34.13;11.73;;;;;;;-2.23;100.00;97554.03;5094844;28;20048;-55
2024/01/19 06:31:53;;;;;;;21.40;10.27;;;;;;;-2.24;100.00;97506.03;5094711;28;20055;-53
2024/01/19 06:34:19;;;;;;;21.58;8.98;;;;;;;-2.21;100.00;97463.22;5094912;28;20098;-56
2024/01/19 06:36:46;;;;;;;33.67;10.30;;;;;;;-2.28;100.00;97438.00;5097024;28;20052;-58
2024/01/19 06:39:12;;;;;;;35.38;9.75;;;;;;;-2.24;100.00;97420.13;5098443;28;20090;-54
2024/01/19 06:41:42;;;;;;;17.85;7.93;;;;;;;-2.31;100.00;97417.16;5098247;28;20048;-59
2024/01/19 06:52:20;;;;;;;22.63;7.87;;;;;;;-2.17;100.00;97421.19;5098651;28;20074;-52
2024/01/19 06:54:47;;;;;;;20.58;8.90;;;;;;;-2.13;100.00;97402.56;5080733;28;20698;-55
2024/01/19 06:57:13;;;;;;;24.55;9.07;;;;;;;-2.02;100.00;97394.91;5097828;28;20051;-54
2024/01/19 06:59:39;;;;;;;16.40;8.38;;;;;;;-2.04;100.00;97373.75;5098421;28;20397;-61
2024/01/19 07:02:05;;;;;;;20.70;8.38;;;;;;;-2.13;100.00;97352.34;5098123;28;20091;-58
2024/01/19 07:04:31;;;;;;;13.10;6.25;;;;;;;-2.15;100.00;97343.03;5098481;28;20052;-54
2024/01/19 07:06:57;;;;;;;19.55;8.27;;;;;;;-2.21;100.00;97330.91;5098053;28;20138;-55
2024/01/19 07:09:23;;;;;;;20.50;8.52;;;;;;;-2.37;100.00;97310.03;5098297;28;20083;-56
2024/01/19 07:11:49;;;;;;;25.73;9.82;;;;;;;-2.48;100.00;97311.50;5097811;28;20106;-58
2024/01/19 07:14:15;;;;;;;18.98;8.73;;;;;;;-2.28;100.00;97346.75;5098116;28;20079;-59
2024/01/19 07:16:43;;;;;;;23.33;9.70;;;;;;;-2.32;100.00;97329.72;5098335;28;20060;-58
2024/01/19 07:19:09;;;;;;;18.42;9.73;;;;;;;-2.26;100.00;97318.47;5097731;28;20052;-57
2024/01/19 07:21:38;;;;;;;22.08;8.82;;;;;;;-2.21;100.00;97299.47;5098092;28;20345;-59
2024/01/19 07:24:04;;;;;;;21.45;8.77;;;;;;;-1.95;100.00;97272.44;5097745;28;20416;-55
2024/01/19 07:26:30;;;;;;;21.05;8.68;;;;;;;-1.27;100.00;97239.03;5098135;28;20306;-60
2024/01/19 07:28:56;;;;;;;19.02;8.85;;;;;;;-1.12;100.00;97176.53;5097847;28;20073;-56
2024/01/19 07:31:22;;;;;;;16.75;9.43;;;;;;;-0.46;100.00;97158.50;5098092;28;20090;-59
2024/01/19 07:33:48;;;;;;;14.45;8.00;;;;;;;-0.16;100.00;97175.13;5097769;28;20063;-58
2024/01/19 07:36:15;;;;;;;18.63;8.35;;;;;;;0.16;100.00;97240.63;5098166;28;20047;-58
2024/01/19 07:38:41;;;;;;;14.85;7.60;;;;;;;0.45;100.00;97310.38;5097501;28;20334;-58
2024/01/19 07:41:07;;;;;;;19.73;7.55;;;;;;;0.69;100.00;97384.97;5097832;28;20139;-59
2024/01/19 07:43:33;;;;;;;16.95;7.03;;;;;;;0.77;100.00;97448.03;5097591;28;20428;-59
2024/01/19 07:45:59;;;;;;;24.27;10.63;;;;;;;0.93;100.00;97497.44;5097385;28;20044;-58
2024/01/19 07:48:25;;;;;;;20.17;9.00;;;;;;;0.98;100.00;97539.56;5096821;28;20062;-59
2024/01/19 07:50:51;;;;;;;17.95;7.55;;;;;;;0.92;100.00;97563.31;5097211;28;20048;-59
2024/01/19 07:53:17;;;;;;;21.88;8.68;;;;;;;0.58;100.00;97572.69;5097436;28;20062;-57
2024/01/19 07:55:43;;;;;;;14.63;7.63;;;;;;;0.73;100.00;97560.41;5097466;28;20507;-56
2024/01/19 07:58:09;;;;;;;19.75;7.43;;;;;;;0.74;100.00;97562.00;5097171;28;20292;-56
2024/01/19 08:00:36;;;;;;;19.95;8.27;;;;;;;0.98;100.00;97592.75;5097318;28;20105;-58
2024/01/19 08:03:02;;;;;;;16.50;8.10;;;;;;;1.37;100.00;97596.63;5097639;28;20056;-58
2024/01/19 08:05:29;;;;;;;17.35;7.75;;;;;;;1.38;100.00;97615.16;5097241;28;20144;-58
2024/01/19 08:07:55;;;;;;;21.17;8.00;;;;;;;1.58;100.00;97620.72;5097685;28;20139;-59
2024/01/19 08:10:21;;;;;;;22.42;8.60;;;;;;;1.44;100.00;97640.03;5096929;28;20044;-56
2024/01/19 08:12:47;;;;;;;18.80;7.97;;;;;;;1.24;100.00;97647.16;5097140;28;20393;-59
2024/01/19 08:15:54;;;;;;;22.63;8.10;;;;;;;1.30;100.00;97651.19;5097000;28;20055;-59
2024/01/19 08:18:20;;;;;;;18.20;7.78;;;;;;;1.29;100.00;97638.81;5097042;28;20138;-60
2024/01/19 08:20:47;;;;;;;20.73;10.10;;;;;;;1.29;100.00;97651.53;5096876;28;20062;-60
2024/01/19 08:23:13;;;;;;;16.33;8.27;;;;;;;1.44;100.00;97672.44;5096986;28;20366;-61
2024/01/19 08:25:39;;;;;;;25.17;10.05;;;;;;;1.47;100.00;97669.03;5097123;28;20106;-59
2024/01/19 08:28:05;;;;;;;21.00;9.73;;;;;;;1.32;100.00;97672.44;5096700;28;20063;-56
2024/01/19 08:30:31;;;;;;;19.63;8.77;;;;;;;1.32;100.00;97677.84;5096683;28;20116;-57
2024/01/19 08:33:00;;;;;;;21.40;10.98;;;;;;;1.12;100.00;97666.06;5096611;28;20051;-61
2024/01/19 08:35:26;;;;;;;22.73;9.98;;;;;;;0.88;100.00;97664.16;5096533;28;20063;-56
2024/01/19 08:37:52;;;;;;;20.13;8.80;;;;;;;0.78;100.00;97665.41;5096643;28;20142;-60
2024/01/19 08:40:19;;;;;;;19.13;8.23;;;;;;;0.93;100.00;97651.25;5096780;28;20043;-55
2024/01/19 08:42:45;;;;;;;24.88;9.38;;;;;;;0.92;100.00;97649.66;5096724;28;20048;-55
2024/01/19 08:45:11;;;;;;;21.00;10.27;;;;;;;0.56;100.00;97655.03;5096833;28;20408;-53
2024/01/19 08:47:37;;;;;;;28.50;9.77;;;;;;;0.46;100.00;97635.47;5096281;28;20113;-56
2024/01/19 08:50:03;;;;;;;21.65;11.25;;;;;;;0.31;100.00;97625.34;5096507;28;20427;-56
2024/01/19 08:52:29;;;;;;;19.50;9.55;;;;;;;0.07;100.00;97614.50;5096253;28;20146;-58
2024/01/19 08:54:56;;;;;;;20.63;9.23;;;;;;;-0.40;100.00;97604.03;5096740;28;20047;-58
2024/01/19 08:57:23;;;;;;;19.35;10.45;;;;;;;-0.38;100.00;97569.50;5096365;28;20059;-60
2024/01/19 08:59:49;;;;;;;17.95;8.73;;;;;;;-0.51;100.00;97563.28;5095705;28;20052;-57
2024/01/19 09:02:15;;;;;;;23.65;10.13;;;;;;;-0.48;100.00;97544.56;5096265;28;20132;-58
2024/01/19 09:04:41;;;;;;;18.95;9.02;;;;;;;-0.69;100.00;97519.59;5096571;28;20416;-56
2024/01/19 09:07:07;;;;;;;19.55;9.45;;;;;;;-0.68;100.00;97498.84;5096654;28;20063;-57
2024/01/19 09:09:33;;;;;;;18.08;9.05;;;;;;;-0.61;100.00;97486.44;5096293;28;20329;-54
2024/01/19 09:11:59;;;;;;;23.20;9.40;;;;;;;-0.74;100.00;97496.34;5096313;28;20056;-53
2024/01/19 09:14:26;;;;;;;18.48;9.00;;;;;;;-0.88;100.00;97481.63;5096146;28;20143;-56
2024/01/19 09:16:52;;;;;;;23.40;8.50;;;;;;;-1.26;100.00;97482.59;5096507;28;20071;-52
2024/01/19 09:19:18;;;;;;;26.85;8.27;;;;;;;-1.16;100.00;97449.94;5096109;28;20375;-55
2024/01/19 09:21:44;;;;;;;18.30;9.05;;;;;;;-1.22;100.00;97446.63;5096450;28;20083;-56
2024/01/19 09:24:10;;;;;;;17.38;7.82;;;;;;;-1.06;100.00;97435.28;5095837;28;20054;-53
2024/01/19 09:26:36;;;;;;;17.85;8.07;;;;;;;-1.21;100.00;97445.50;5096483;28;20087;-56
2024/01/19 09:29:03;;;;;;;20.27;8.05;;;;;;;-1.24;100.00;97442.69;5096002;28;20189;-59
2024/01/19 09:31:29;;;;;;;18.05;8.00;;;;;;;-1.27;100.00;97433.38;5095826;28;20052;-54
2024/01/19 09:33:55;;;;;;;16.90;8.80;;;;;;;-1.53;100.00;97417.50;5096011;28;20090;-57
2024/01/19 09:36:21;;;;;;;22.17;8.75;;;;;;;-1.42;100.00;97404.44;5095821;28;20388;-59
2024/01/19 09:38:47;;;;;;;17.58;9.23;;;;;;;-1.58;100.00;97401.56;5095831;28;20044;-56
2024/01/19 09:41:31;;;;;;;19.30;8.65;;;;;;;-1.52;100.00;97392.19;5095948;28;20058;-58
2024/01/19 09:43:59;;;;;;;18.63;8.02;;;;;;;-1.44;100.00;97377.88;5096185;28;20052;-55
2024/01/19 09:46:28;;;;;;;16.42;7.75;;;;;;;-1.23;100.00;97372.47;5095847;28;20332;-54
2024/01/19 09:48:59;;;;;;;17.13;8.95;;;;;;;-1.12;100.00;97377.44;5096180;28;20060;-54
2024/01/19 09:51:39;;;;;;;22.95;9.25;;;;;;;-1.03;100.00;97397.75;5095648;28;20074;-53
2024/01/19 09:54:08;;;;;;;18.90;8.63;;;;;;;-0.99;100.00;97422.09;5095714;28;20059;-58
2024/01/19 09:56:35;;;;;;;17.45;9.18;;;;;;;-0.80;100.00;97426.94;5095705;28;20120;-56
2024/01/19 09:59:03;;;;;;;20.30;9.20;;;;;;;-0.90;100.00;97443.50;5095344;28;20136;-54
2024/01/19 10:01:30;;;;;;;29.38;9.35;;;;;;;-0.85;100.00;97436.03;5095655;28;20417;-58
2024/01/19 10:03:58;;;;;;;29.73;8.05;;;;;;;-0.76;100.00;97442.09;5095549;28;20060;-57
2024/01/19 10:06:25;;;;;;;23.75;9.48;;;;;;;-0.88;100.00;97454.72;5095724;28;20052;-55
2024/01/19 10:08:54;;;;;;;23.02;9.45;;;;;;;-0.70;100.00;97453.44;5095279;28;20047;-57
2024/01/19 10:11:21;;;;;;;20.10;9.68;;;;;;;-0.63;100.00;97455.56;5097473;28;20074;-55
2024/01/19 10:13:47;;;;;;;25.83;9.68;;;;;;;-0.67;100.00;97468.91;5098869;28;20146;-54
2024/01/19 10:16:13;;;;;;;23.20;9.55;;;;;;;-0.70;100.00;97474.94;5099460;28;20056;-57
2024/01/19 10:18:41;;;;;;;22.52;8.77;;;;;;;-0.65;100.00;97469.38;5098763;28;20131;-55
2024/01/19 10:21:07;;;;;;;32.58;10.38;;;;;;;-0.52;100.00;97473.66;5098866;28;20143;-55
2024/01/19 10:23:33;;;;;;;23.30;10.32;;;;;;;-0.67;100.00;97474.28;5098955;28;20450;-58
2024/01/19 10:26:12;;;;;;;22.20;10.18;;;;;;;-0.93;100.00;97498.78;5098899;28;20058;-59
2024/01/19 10:28:39;;;;;;;22.63;10.98;;;;;;;-0.55;100.00;97487.78;5099013;28;20059;-55
2024/01/19 10:31:21;;;;;;;23.92;10.02;;;;;;;-0.58;100.00;97487.66;5098388;28;20055;-58
2024/01/19 10:33:52;;;;;;;24.77;10.65;;;;;;;-0.88;100.00;97500.47;5099074;28;20481;-60
2024/01/19 10:36:18;;;;;;;22.25;8.23;;;;;;;-0.82;100.00;97464.16;5098835;28;20476;-58
2024/01/19 10:38:44;;;;;;;20.88;9.90;;;;;;;-0.93;100.00;97465.69;5098919;28;20091;-57
2024/01/19 10:41:14;;;;;;;25.10;9.15;;;;;;;-0.97;100.00;97466.38;5098319;28;20325;-57
2024/01/19 10:43:41;;;;;;;24.63;8.30;;;;;;;-0.87;100.00;97456.28;5098720;28;20044;-54
2024/01/19 10:46:18;;;;;;;18.65;8.60;;;;;;;-0.97;100.00;97457.50;5098717;28;20104;-57
2024/01/19 10:48:46;;;;;;;17.67;9.07;;;;;;;-0.89;100.00;97442.41;5098481;28;20048;-55
2024/01/19 10:51:13;;;;;;;20.20;9.82;;;;;;;-0.73;100.00;97454.13;5098188;28;20059;-56
2024/01/19 10:53:39;;;;;;;20.23;8.52;;;;;;;-0.59;100.00;97461.88;5098541;28;20378;-56
2024/01/19 10:56:05;;;;;;;18.13;8.88;;;;;;;-0.83;100.00;97481.44;5098787;28;20060;-54
2024/01/19 10:58:33;;;;;;;17.98;7.88;;;;;;;-0.78;100.00;97478.53;5098418;28;20209;-56
2024/01/19 11:01:13;;;;;;;22.55;9.13;;;;;;;-0.85;100.00;97491.72;5098587;28;20142;-56
2024/01/19 11:03:40;;;;;;;20.05;8.60;;;;;;;-1.03;100.00;97473.06;5098058;28;20063;-57
2024/01/19 11:06:06;;;;;;;20.33;9.02;;;;;;;-1.15;100.00;97474.91;5098103;28;20081;-56
2024/01/19 11:08:34;;;;;;;19.17;9.77;;;;;;;-0.68;100.00;97482.72;5098193;28;20147;-60
2024/01/19 11:11:01;;;;;;;20.10;8.93;;;;;;;-0.76;100.00;97516.66;5098016;28;20453;-53
2024/01/19 11:13:29;;;;;;;16.60;6.85;;;;;;;-1.13;100.00;97521.06;5098079;28;20063;-56
2024/01/19 11:15:59;;;;;;;19.42;9.20;;;;;;;-0.57;100.00;97491.94;5098058;28;20121;-55
2024/01/19 11:18:28;;;;;;;17.77;8.38;;;;;;;-0.60;100.00;97509.56;5098127;28;20047;-57
2024/01/19 11:20:54;;;;;;;14.80;8.13;;;;;;;-0.51;100.00;97531.75;5097735;28;20357;-57